Time;durP1;ratioP1;P1;durP2;ratioP2;P2;SDS_P1;SDS_P2;PMS_P1;PMS_P2;Temp;Humidity;BMP_temperature;BMP_pressure;BME280_temperature;BME280_humidity;BME280_pressure;Samples;Min_cycle;Max_cycle;Signal;HPM_P1;HPM_P2
2023/03/24 00:01:13;;;;;;;9.85;3.80;;;12.00;99.90;;;;;;6316206;22;20019;-95
2023/03/24 00:03:39;;;;;;;12.63;4.30;;;12.00;99.90;;;;;;6293854;22;20025;-95
2023/03/24 00:06:06;;;;;;;12.25;3.88;;;12.00;99.90;;;;;;6319568;22;20015;-95
2023/03/24 00:08:35;;;;;;;12.98;4.05;;;11.90;99.90;;;;;;6317790;22;20022;-95
2023/03/24 00:11:05;;;;;;;10.75;4.00;;;12.00;99.90;;;;;;6322546;22;20011;-96
2023/03/24 00:13:36;;;;;;;13.35;4.40;;;12.00;99.90;;;;;;6320228;22;20470;-95
2023/03/24 00:16:07;;;;;;;9.75;3.95;;;12.00;99.90;;;;;;6323317;22;20015;-96
2023/03/24 00:18:34;;;;;;;9.43;4.00;;;11.90;99.90;;;;;;6288634;22;20332;-96
2023/03/24 00:20:59;;;;;;;8.68;4.07;;;11.90;99.90;;;;;;6289721;22;20022;-96
2023/03/24 00:23:31;;;;;;;10.45;3.90;;;11.90;99.90;;;;;;6288847;22;20019;-96
2023/03/24 00:26:07;;;;;;;11.30;3.83;;;11.90;99.90;;;;;;6295628;22;20022;-95
2023/03/24 00:28:36;;;;;;;10.30;4.25;;;11.90;99.90;;;;;;6318072;22;20019;-96
2023/03/24 00:31:03;;;;;;;9.45;3.60;;;11.90;99.90;;;;;;6316383;22;20019;-95
2023/03/24 00:33:31;;;;;;;10.55;4.32;;;11.90;99.90;;;;;;6288330;22;20019;-94
2023/03/24 00:35:58;;;;;;;9.38;3.70;;;11.90;99.90;;;;;;6293685;22;20046;-95
2023/03/24 00:38:26;;;;;;;9.45;3.75;;;11.90;99.90;;;;;;6287478;22;20435;-94
2023/03/24 00:40:52;;;;;;;11.48;4.07;;;11.90;99.90;;;;;;6286409;22;20022;-96
2023/03/24 00:43:19;;;;;;;8.68;3.80;;;11.90;99.90;;;;;;6313655;22;20011;-96
2023/03/24 00:45:45;;;;;;;9.07;3.40;;;11.90;99.90;;;;;;6288395;22;20015;-94
2023/03/24 00:48:19;;;;;;;8.10;3.65;;;11.90;99.90;;;;;;6313852;22;20020;-95
2023/03/24 00:50:49;;;;;;;10.88;3.72;;;11.90;99.90;;;;;;6319129;22;20015;-94
2023/03/24 00:53:15;;;;;;;9.77;3.78;;;11.80;99.90;;;;;;6290356;22;20012;-94
2023/03/24 00:55:50;;;;;;;9.80;3.75;;;11.90;99.90;;;;;;6302255;22;20019;-96
2023/03/24 00:58:18;;;;;;;9.40;3.55;;;11.90;99.90;;;;;;6286086;22;20007;-93
2023/03/24 01:00:46;;;;;;;9.55;3.85;;;11.90;99.90;;;;;;6314102;22;20019;-94
2023/03/24 01:03:12;;;;;;;7.40;3.35;;;11.90;99.90;;;;;;6312810;22;20042;-95
2023/03/24 01:05:38;;;;;;;10.32;3.50;;;11.80;99.90;;;;;;6314069;22;20091;-92
2023/03/24 01:08:05;;;;;;;8.43;3.33;;;11.80;99.90;;;;;;6284422;22;20015;-94
2023/03/24 01:10:34;;;;;;;8.27;3.50;;;11.80;99.90;;;;;;6311721;22;20015;-95
2023/03/24 01:13:00;;;;;;;10.00;3.85;;;11.80;99.90;;;;;;6283638;22;20090;-93
2023/03/24 01:15:32;;;;;;;7.88;3.58;;;11.80;99.90;;;;;;6283289;22;20007;-93
2023/03/24 01:18:01;;;;;;;9.88;3.50;;;11.80;99.90;;;;;;6284557;22;20026;-96
2023/03/24 01:20:31;;;;;;;8.20;3.53;;;11.80;99.90;;;;;;6286150;22;20007;-96
2023/03/24 01:22:59;;;;;;;8.23;3.40;;;11.80;99.90;;;;;;6283575;22;20025;-94
2023/03/24 01:25:26;;;;;;;9.68;3.60;;;11.80;99.90;;;;;;6284584;22;20093;-96
2023/03/24 01:27:52;;;;;;;7.68;3.25;;;11.90;99.90;;;;;;6283601;22;20347;-96
2023/03/24 01:30:24;;;;;;;9.07;3.38;;;11.80;99.90;;;;;;6283840;22;20018;-95
2023/03/24 01:32:51;;;;;;;7.78;3.25;;;11.80;99.90;;;;;;6283624;22;20019;-96
2023/03/24 01:35:17;;;;;;;8.10;3.30;;;11.80;99.90;;;;;;6283789;22;20015;-95
2023/03/24 01:37:43;;;;;;;7.15;3.40;;;11.80;99.90;;;;;;6283840;22;20098;-95
2023/03/24 01:40:16;;;;;;;7.20;3.10;;;11.90;99.90;;;;;;6310067;22;20018;-96
2023/03/24 01:42:41;;;;;;;6.97;3.15;;;11.80;99.90;;;;;;6283413;22;20015;-95
2023/03/24 01:45:52;;;;;;;9.48;3.53;;;11.80;99.90;;;;;;6310734;22;20377;-93
2023/03/24 01:48:21;;;;;;;6.72;3.05;;;11.80;99.90;;;;;;6302938;22;20011;-95
2023/03/24 01:50:57;;;;;;;6.90;3.00;;;11.80;99.90;;;;;;6283242;22;20015;-95
2023/03/24 01:53:24;;;;;;;6.90;3.05;;;11.80;99.90;;;;;;6312037;22;20027;-96
2023/03/24 01:55:50;;;;;;;6.00;3.03;;;11.80;99.90;;;;;;6313903;22;20011;-95
2023/03/24 01:58:17;;;;;;;9.02;3.60;;;11.90;99.90;;;;;;6314283;22;20335;-96
2023/03/24 02:00:43;;;;;;;8.82;3.08;;;11.80;99.90;;;;;;6315252;22;20082;-96
2023/03/24 02:03:13;;;;;;;9.38;3.13;;;11.90;99.90;;;;;;6284939;22;20018;-96
2023/03/24 02:05:40;;;;;;;7.18;3.28;;;11.90;99.90;;;;;;6288599;22;20343;-96
2023/03/24 02:08:47;;;;;;;7.72;3.38;;;11.90;99.90;;;;;;6318689;22;20029;-96
2023/03/24 02:11:13;;;;;;;8.63;3.33;;;11.80;99.90;;;;;;6135926;23;20084;-95
2023/03/24 02:13:38;;;;;;;8.13;3.17;;;11.80;99.90;;;;;;6255378;22;20015;-96
2023/03/24 02:16:24;;;;;;;8.35;2.95;;;11.90;99.90;;;;;;6289922;22;20446;-96
2023/03/24 02:19:22;;;;;;;8.15;3.15;;;11.80;99.90;;;;;;6319114;22;20019;-95
2023/03/24 02:22:16;;;;;;;8.25;2.90;;;11.80;99.90;;;;;;6316320;22;20339;-96
2023/03/24 02:24:50;;;;;;;6.05;3.03;;;11.90;99.90;;;;;;6315720;22;20043;-96
2023/03/24 02:27:50;;;;;;;6.78;2.90;;;11.90;99.90;;;;;;6292773;22;20050;-96
2023/03/24 02:30:43;;;;;;;7.75;3.38;;;11.90;99.90;;;;;;6318533;22;20068;-96
2023/03/24 02:33:12;;;;;;;;;;;11.90;99.90;;;;;;6322043;22;20030;-96
2023/03/24 02:35:56;;;;;;;6.07;3.10;;;11.80;99.90;;;;;;6292256;22;19915;-96
2023/03/24 02:38:50;;;;;;;7.65;2.97;;;11.80;99.90;;;;;;6283284;22;20011;-95
2023/03/24 02:41:33;;;;;;;7.45;3.20;;;11.90;99.90;;;;;;6313017;22;20019;-96
2023/03/24 02:44:17;;;;;;;8.73;3.22;;;11.90;99.90;;;;;;6314879;22;20015;-96
2023/03/24 02:47:16;;;;;;;7.68;3.58;;;11.90;99.90;;;;;;6314471;22;20136;-96
2023/03/24 02:49:47;;;;;;;6.90;2.78;;;11.90;99.90;;;;;;6239602;22;20038;-96
2023/03/24 02:52:20;;;;;;;7.20;2.80;;;11.90;99.90;;;;;;6309868;22;20015;-96
2023/03/24 02:54:51;;;;;;;6.82;3.22;;;11.90;99.90;;;;;;6311925;22;20089;-96
2023/03/24 02:57:41;;;;;;;7.43;2.95;;;11.90;99.90;;;;;;6284477;22;20015;-96
2023/03/24 03:00:11;;;;;;;7.47;2.63;;;11.90;99.90;;;;;;6281736;22;20019;-93
2023/03/24 03:02:44;;;;;;;7.05;3.03;;;11.90;99.90;;;;;;6281813;22;20026;-94
2023/03/24 03:05:42;;;;;;;7.32;2.97;;;11.90;99.90;;;;;;6282503;22;20022;-96
2023/03/24 03:08:11;;;;;;;9.50;2.95;;;11.90;99.90;;;;;;6249758;22;20071;-96
2023/03/24 03:10:39;;;;;;;7.57;3.20;;;11.90;99.90;;;;;;6282374;22;20018;-95
2023/03/24 03:13:16;;;;;;;6.68;3.03;;;12.00;99.90;;;;;;6282120;22;20065;-93
2023/03/24 03:15:50;;;;;;;6.22;3.00;;;12.00;99.90;;;;;;6282528;22;20435;-96
2023/03/24 03:18:24;;;;;;;7.50;3.10;;;12.00;99.90;;;;;;6311928;22;20015;-95
2023/03/24 03:20:54;;;;;;;6.82;3.08;;;12.00;99.90;;;;;;6311755;22;20518;-96
2023/03/24 03:23:27;;;;;;;7.32;2.63;;;12.00;99.90;;;;;;6310089;22;20024;-96
2023/03/24 03:26:04;;;;;;;6.45;3.08;;;12.00;99.90;;;;;;6311933;22;20339;-96
2023/03/24 03:28:32;;;;;;;6.20;2.92;;;12.00;99.90;;;;;;6310478;22;20022;-95
2023/03/24 03:31:05;;;;;;;6.38;2.97;;;12.00;99.90;;;;;;6280873;22;20017;-91
2023/03/24 03:33:50;;;;;;;6.93;3.05;;;12.10;99.90;;;;;;6279852;22;20012;-93
2023/03/24 03:36:25;;;;;;;6.65;3.03;;;12.10;99.90;;;;;;6306538;22;20019;-90
2023/03/24 03:38:54;;;;;;;7.15;2.78;;;12.10;99.90;;;;;;6307039;22;20007;-92
2023/03/24 03:41:20;;;;;;;5.93;2.10;;;12.10;99.90;;;;;;6307971;22;20011;-94
2023/03/24 03:43:48;;;;;;;5.35;2.10;;;12.10;99.90;;;;;;6280973;22;20405;-96
2023/03/24 03:46:15;;;;;;;5.70;1.95;;;12.10;99.90;;;;;;6281393;22;20019;-95
2023/03/24 03:48:42;;;;;;;6.18;2.00;;;12.10;99.90;;;;;;6308700;22;20011;-92
2023/03/24 03:51:08;;;;;;;7.95;2.13;;;12.10;99.90;;;;;;6308362;22;20086;-92
2023/03/24 03:53:49;;;;;;;7.07;2.00;;;12.00;99.90;;;;;;6308675;22;20447;-93
2023/03/24 03:56:18;;;;;;;5.95;2.20;;;11.90;99.90;;;;;;6280195;22;20019;-94
2023/03/24 03:58:46;;;;;;;8.23;2.20;;;11.80;99.90;;;;;;6308777;22;20026;-93
2023/03/24 04:01:25;;;;;;;7.15;2.00;;;11.80;99.90;;;;;;6281731;22;20012;-96
2023/03/24 04:03:56;;;;;;;9.23;2.28;;;11.80;99.90;;;;;;6281125;22;20378;-95
2023/03/24 04:06:58;;;;;;;5.82;1.92;;;11.70;99.90;;;;;;6280072;22;20015;-94
2023/03/24 04:10:01;;;;;;;10.82;2.20;;;11.70;99.90;;;;;;6249675;22;20023;-93
2023/03/24 04:12:57;;;;;;;6.70;2.00;;;11.60;99.90;;;;;;6307710;22;20038;-93
2023/03/24 04:15:41;;;;;;;9.32;2.25;;;11.60;99.90;;;;;;6280222;22;20054;-93
2023/03/24 04:18:30;;;;;;;7.03;1.83;;;11.50;99.90;;;;;;6308131;22;20447;-95
2023/03/24 04:21:08;;;;;;;9.23;1.90;;;11.50;99.90;;;;;;6205132;22;20015;-95
2023/03/24 04:23:40;;;;;;;13.82;2.10;;;11.50;99.90;;;;;;6279997;22;20038;-94
2023/03/24 04:26:15;;;;;;;8.35;2.15;;;11.50;99.90;;;;;;6280531;22;20011;-94
2023/03/24 04:29:07;;;;;;;7.60;2.17;;;11.40;99.90;;;;;;6281532;22;20072;-95
2023/03/24 04:31:39;;;;;;;11.87;2.63;;;11.40;99.90;;;;;;6281123;22;20022;-93
2023/03/24 04:34:29;;;;;;;8.45;1.80;;;11.30;99.90;;;;;;6310050;22;20042;-96
2023/03/24 04:37:11;;;;;;;10.15;1.95;;;11.30;99.90;;;;;;6285917;22;20015;-96
2023/03/24 04:39:40;;;;;;;13.45;2.33;;;11.30;99.90;;;;;;6311188;22;20050;-95
2023/03/24 04:42:12;;;;;;;7.50;1.65;;;11.20;99.90;;;;;;6288724;22;20011;-95
2023/03/24 04:44:40;;;;;;;10.00;1.85;;;11.20;99.90;;;;;;6306752;22;20072;-94
2023/03/24 04:47:07;;;;;;;11.35;2.10;;;11.20;99.90;;;;;;6252143;22;20016;-89
2023/03/24 04:49:39;;;;;;;11.20;1.90;;;11.20;99.90;;;;;;6277665;22;20022;-88
2023/03/24 04:52:06;;;;;;;7.72;2.00;;;11.20;99.90;;;;;;6250869;22;20090;-88
2023/03/24 04:54:32;;;;;;;10.70;1.92;;;11.10;99.90;;;;;;6249762;22;20015;-95
2023/03/24 04:57:04;;;;;;;8.75;1.88;;;11.10;99.90;;;;;;6297359;22;20020;-95
2023/03/24 04:59:42;;;;;;;8.88;2.33;;;11.00;99.90;;;;;;6287338;22;20023;-94
2023/03/24 05:02:08;;;;;;;13.52;2.65;;;11.00;99.90;;;;;;6299142;22;20022;-96
2023/03/24 05:04:35;;;;;;;11.57;2.13;;;11.00;99.90;;;;;;6269332;22;20019;-95
2023/03/24 05:07:02;;;;;;;10.75;2.08;;;10.90;99.90;;;;;;6271642;22;20067;-96
2023/03/24 05:09:30;;;;;;;12.10;1.88;;;11.00;99.90;;;;;;6273259;22;20054;-95
2023/03/24 05:11:56;;;;;;;14.75;2.55;;;10.90;99.90;;;;;;6260444;22;20015;-93
2023/03/24 05:14:22;;;;;;;12.30;2.38;;;10.90;99.90;;;;;;6280085;22;20065;-91
2023/03/24 05:16:48;;;;;;;15.30;2.80;;;10.80;99.90;;;;;;6279060;22;20019;-92
2023/03/24 05:19:14;;;;;;;10.70;2.10;;;10.80;99.90;;;;;;6251789;22;20099;-91
2023/03/24 05:21:40;;;;;;;11.73;2.42;;;10.80;99.90;;;;;;6251238;22;20455;-91
2023/03/24 05:24:05;;;;;;;13.43;2.50;;;10.80;99.90;;;;;;6278511;22;20015;-92
2023/03/24 05:26:32;;;;;;;9.88;2.40;;;10.80;99.90;;;;;;6278467;22;20054;-92
2023/03/24 05:28:57;;;;;;;10.07;2.08;;;10.80;99.90;;;;;;6252275;22;20094;-92
2023/03/24 05:31:23;;;;;;;15.45;2.63;;;10.80;99.90;;;;;;6278600;22;20011;-91
2023/03/24 05:33:48;;;;;;;13.50;2.45;;;10.80;99.90;;;;;;6252302;22;20191;-93
2023/03/24 05:36:15;;;;;;;11.07;2.20;;;10.80;99.90;;;;;;6251418;22;20440;-91
2023/03/24 05:38:40;;;;;;;12.77;3.08;;;10.80;99.90;;;;;;6279229;22;20021;-92
2023/03/24 05:41:06;;;;;;;16.25;2.65;;;10.80;99.90;;;;;;6251938;22;20066;-93
2023/03/24 05:43:32;;;;;;;11.45;2.25;;;10.70;99.90;;;;;;6251352;22;20015;-93
2023/03/24 05:46:00;;;;;;;14.85;2.65;;;10.70;99.90;;;;;;6279016;22;20037;-93
2023/03/24 05:48:26;;;;;;;10.50;2.65;;;10.70;99.90;;;;;;6278911;22;20022;-92
2023/03/24 05:50:52;;;;;;;15.85;2.65;;;10.70;99.90;;;;;;6251962;22;20011;-93
2023/03/24 05:53:18;;;;;;;15.80;2.90;;;10.60;99.90;;;;;;6252148;22;20016;-93
2023/03/24 05:55:44;;;;;;;15.20;2.90;;;10.60;99.90;;;;;;6278815;22;20074;-93
2023/03/24 05:58:10;;;;;;;15.65;2.30;;;10.60;99.90;;;;;;6250811;22;20054;-92
2023/03/24 06:00:37;;;;;;;10.85;2.10;;;10.60;99.90;;;;;;6251763;22;20028;-92
2023/03/24 06:03:03;;;;;;;12.82;2.70;;;10.50;99.90;;;;;;6251545;22;20020;-92
2023/03/24 06:05:30;;;;;;;13.02;2.42;;;10.50;99.90;;;;;;6278748;22;20023;-92
2023/03/24 06:08:00;;;;;;;12.95;2.20;;;10.50;99.90;;;;;;6251861;22;20456;-93
2023/03/24 06:10:26;;;;;;;10.52;1.90;;;10.50;99.90;;;;;;6278454;22;20091;-91
2023/03/24 06:12:54;;;;;;;15.98;2.17;;;10.50;99.90;;;;;;6251752;22;20015;-94
2023/03/24 06:15:21;;;;;;;15.85;2.28;;;10.40;99.90;;;;;;6251967;22;20008;-93
2023/03/24 06:17:48;;;;;;;12.27;2.20;;;10.40;99.90;;;;;;6278403;22;20090;-92
2023/03/24 06:20:17;;;;;;;15.50;2.60;;;10.40;99.90;;;;;;6251904;22;20015;-93
2023/03/24 06:22:44;;;;;;;16.77;2.55;;;10.40;99.90;;;;;;6278766;22;20026;-92
2023/03/24 06:25:15;;;;;;;13.65;2.30;;;10.40;99.90;;;;;;6277925;22;20079;-92
2023/03/24 06:27:45;;;;;;;13.90;2.55;;;10.30;99.90;;;;;;6278702;22;20045;-91
2023/03/24 06:30:12;;;;;;;11.73;2.15;;;10.30;99.90;;;;;;6251344;22;20012;-92
2023/03/24 06:32:38;;;;;;;10.57;2.17;;;10.30;99.90;;;;;;6251458;22;20146;-93
2023/03/24 06:35:04;;;;;;;10.27;2.10;;;10.30;99.90;;;;;;6278876;22;20012;-92
2023/03/24 06:37:31;;;;;;;14.93;2.45;;;10.30;99.90;;;;;;6279547;22;20030;-92
2023/03/24 06:39:56;;;;;;;15.35;2.53;;;10.30;99.90;;;;;;6251889;22;20042;-94
2023/03/24 06:42:22;;;;;;;9.75;1.65;;;10.30;99.90;;;;;;6252125;22;20016;-91
2023/03/24 06:44:47;;;;;;;11.52;2.17;;;10.30;99.90;;;;;;6251488;22;20066;-92
2023/03/24 06:47:13;;;;;;;12.45;2.20;;;10.30;99.90;;;;;;6278185;22;20016;-92
2023/03/24 06:49:39;;;;;;;14.70;2.53;;;10.30;99.90;;;;;;6278564;22;20034;-94
2023/03/24 06:52:04;;;;;;;11.77;2.40;;;10.30;99.90;;;;;;6251231;22;20089;-91
2023/03/24 06:54:30;;;;;;;13.38;2.00;;;10.40;99.90;;;;;;6251498;22;20054;-93
2023/03/24 06:56:56;;;;;;;13.95;2.55;;;10.30;99.90;;;;;;6278630;22;20047;-93
2023/03/24 06:59:23;;;;;;;14.27;2.35;;;10.40;99.90;;;;;;6251172;22;20024;-92
2023/03/24 07:01:50;;;;;;;15.15;2.15;;;10.40;99.90;;;;;;6280005;22;20015;-93
2023/03/24 07:04:16;;;;;;;15.25;2.40;;;10.30;99.90;;;;;;6277870;22;20470;-91
2023/03/24 07:06:42;;;;;;;13.55;2.42;;;10.40;99.90;;;;;;6250791;22;20043;-92
2023/03/24 07:09:08;;;;;;;13.07;2.10;;;10.40;99.90;;;;;;6278537;22;20020;-92
2023/03/24 07:11:33;;;;;;;11.25;2.03;;;10.40;99.90;;;;;;6251356;22;20039;-92
2023/03/24 07:13:59;;;;;;;17.33;2.28;;;10.40;99.90;;;;;;6277800;22;20020;-92
2023/03/24 07:16:25;;;;;;;17.40;3.10;;;10.40;99.90;;;;;;6250807;22;20011;-92
2023/03/24 07:18:50;;;;;;;18.02;2.92;;;10.40;99.90;;;;;;6251605;22;20433;-91
2023/03/24 07:21:17;;;;;;;14.93;2.78;;;10.40;99.90;;;;;;6250457;22;20455;-91
2023/03/24 07:23:43;;;;;;;16.65;2.95;;;10.40;99.90;;;;;;6251408;22;20012;-94
2023/03/24 07:26:08;;;;;;;16.05;2.97;;;10.40;99.90;;;;;;6276585;22;20023;-93
2023/03/24 07:28:34;;;;;;;22.35;2.72;;;10.40;99.90;;;;;;6278021;22;20016;-91
2023/03/24 07:31:04;;;;;;;19.92;3.08;;;10.40;99.90;;;;;;6277557;22;20023;-92
2023/03/24 07:33:30;;;;;;;17.02;2.88;;;10.40;99.90;;;;;;6278186;22;20027;-93
2023/03/24 07:35:56;;;;;;;16.80;2.80;;;10.50;99.90;;;;;;6277558;22;20054;-92
2023/03/24 07:38:23;;;;;;;22.52;3.13;;;10.50;99.90;;;;;;6277124;22;20024;-92
2023/03/24 07:40:50;;;;;;;16.40;2.72;;;10.50;99.90;;;;;;6277091;22;20047;-93
2023/03/24 07:43:16;;;;;;;19.55;3.10;;;10.50;99.90;;;;;;6275997;22;20015;-91
2023/03/24 07:45:44;;;;;;;20.25;2.88;;;10.50;99.90;;;;;;6277799;22;20474;-93
2023/03/24 07:48:10;;;;;;;19.02;3.13;;;10.50;99.90;;;;;;6275726;22;20015;-94
2023/03/24 07:50:35;;;;;;;21.13;3.00;;;10.60;99.90;;;;;;6276842;22;20340;-91
2023/03/24 07:53:01;;;;;;;23.65;3.72;;;10.60;99.90;;;;;;6278637;22;20065;-92
2023/03/24 07:55:27;;;;;;;21.33;3.17;;;10.60;99.90;;;;;;6276744;22;20507;-91
2023/03/24 07:57:52;;;;;;;18.40;3.40;;;10.60;99.90;;;;;;6276308;22;20102;-93
2023/03/24 08:00:18;;;;;;;19.40;3.22;;;10.70;99.90;;;;;;6277588;22;20043;-91
2023/03/24 08:02:50;;;;;;;25.05;3.25;;;10.60;99.90;;;;;;6275277;22;20069;-92
2023/03/24 08:05:18;;;;;;;21.77;2.95;;;10.70;99.90;;;;;;6277963;22;20012;-93
2023/03/24 08:07:54;;;;;;;20.42;3.13;;;10.60;99.90;;;;;;6280114;22;20015;-92
2023/03/24 08:10:22;;;;;;;22.02;3.30;;;10.70;99.90;;;;;;6280733;22;20015;-93
2023/03/24 08:12:49;;;;;;;27.38;3.72;;;10.70;99.90;;;;;;6278522;22;20047;-94
2023/03/24 08:15:15;;;;;;;23.70;3.72;;;10.70;99.90;;;;;;6279510;22;20039;-96
2023/03/24 08:17:41;;;;;;;21.23;3.35;;;10.70;99.90;;;;;;6278925;22;20023;-94
2023/03/24 08:20:13;;;;;;;17.55;3.42;;;10.70;99.90;;;;;;6281186;22;20012;-95
2023/03/24 08:22:41;;;;;;;19.60;3.50;;;10.70;99.90;;;;;;6286440;22;20016;-96
2023/03/24 08:25:09;;;;;;;20.85;3.25;;;10.70;99.90;;;;;;6281450;22;20043;-94
2023/03/24 08:27:36;;;;;;;22.15;3.75;;;10.70;99.90;;;;;;6279017;22;20023;-95
2023/03/24 08:30:04;;;;;;;20.98;3.70;;;10.80;99.90;;;;;;6279551;22;20015;-95
2023/03/24 08:32:29;;;;;;;31.10;3.90;;;10.80;99.90;;;;;;6278675;22;20019;-95
2023/03/24 08:34:56;;;;;;;19.42;3.47;;;10.80;99.90;;;;;;6279509;22;20448;-95
2023/03/24 08:37:22;;;;;;;24.00;3.95;;;10.80;99.90;;;;;;6279958;22;20027;-93
2023/03/24 08:39:48;;;;;;;19.83;3.53;;;10.90;99.90;;;;;;6280453;22;20336;-95
2023/03/24 08:42:13;;;;;;;23.17;3.80;;;10.90;99.90;;;;;;6285280;22;20043;-94
2023/03/24 08:44:39;;;;;;;23.55;3.55;;;11.00;99.90;;;;;;6280810;22;20019;-94
2023/03/24 08:47:05;;;;;;;21.02;4.05;;;11.00;99.90;;;;;;6280295;22;20124;-94
2023/03/24 08:49:30;;;;;;;24.10;4.03;;;11.00;99.90;;;;;;6278818;22;20016;-95
2023/03/24 08:51:56;;;;;;;19.88;3.53;;;11.10;99.90;;;;;;6278368;22;20018;-93
2023/03/24 08:54:23;;;;;;;23.23;3.70;;;11.00;99.90;;;;;;6279771;22;20340;-96
2023/03/24 08:56:49;;;;;;;19.13;3.42;;;11.00;99.90;;;;;;6280169;22;20020;-94
2023/03/24 08:59:15;;;;;;;17.98;3.80;;;11.00;99.90;;;;;;6279747;22;20075;-95
2023/03/24 09:01:41;;;;;;;21.02;3.35;;;11.00;99.90;;;;;;6280391;22;20020;-95
2023/03/24 09:04:07;;;;;;;21.88;3.53;;;11.10;99.90;;;;;;6280310;22;20018;-94
2023/03/24 09:06:33;;;;;;;19.65;3.90;;;11.10;99.90;;;;;;6281946;22;20019;-94
2023/03/24 09:08:58;;;;;;;23.50;3.50;;;11.20;99.90;;;;;;6279761;22;20020;-94
2023/03/24 09:11:24;;;;;;;20.50;3.60;;;11.30;99.90;;;;;;6278852;22;20309;-93
2023/03/24 09:13:50;;;;;;;18.73;3.35;;;11.30;99.90;;;;;;6280134;22;20094;-96
2023/03/24 09:16:16;;;;;;;18.85;3.30;;;11.40;99.90;;;;;;6279225;22;20050;-95
2023/03/24 09:18:42;;;;;;;18.05;2.95;;;11.40;99.90;;;;;;6283888;22;20027;-96
2023/03/24 09:21:08;;;;;;;21.45;3.33;;;11.40;99.90;;;;;;6290210;22;20016;-95
2023/03/24 09:23:34;;;;;;;22.17;4.07;;;11.40;99.90;;;;;;6285540;22;20067;-96
2023/03/24 09:26:01;;;;;;;17.98;3.17;;;11.50;99.90;;;;;;6282689;22;20016;-94
2023/03/24 09:28:26;;;;;;;22.30;3.58;;;11.60;99.90;;;;;;6281256;22;20019;-95
2023/03/24 09:30:58;;;;;;;20.25;3.80;;;11.60;99.90;;;;;;6284344;22;20011;-96
2023/03/24 09:33:24;;;;;;;19.00;3.40;;;11.70;99.90;;;;;;6262130;22;20015;-95
2023/03/24 09:35:57;;;;;;;19.05;3.55;;;11.80;99.90;;;;;;6281724;22;20015;-92
2023/03/24 09:38:23;;;;;;;;;;;11.80;99.90;;;;;;6284891;22;20012;-95
2023/03/24 09:40:55;;;;;;;16.13;4.10;;;11.80;99.90;;;;;;6281395;22;19922;-94
2023/03/24 09:43:20;;;;;;;23.83;4.40;;;11.90;99.90;;;;;;6282200;22;20016;-96
2023/03/24 09:45:53;;;;;;;21.80;3.55;;;12.00;99.90;;;;;;6285140;22;20055;-93
2023/03/24 09:48:32;;;;;;;18.20;3.63;;;12.10;99.90;;;;;;6275427;22;20390;-91
2023/03/24 09:51:13;;;;;;;18.98;3.90;;;12.20;99.90;;;;;;6277032;22;20058;-91
2023/03/24 09:53:51;;;;;;;19.10;3.83;;;12.30;99.90;;;;;;6279599;22;20007;-95
2023/03/24 09:56:19;;;;;;;16.58;3.10;;;12.30;99.70;;;;;;6277562;22;20340;-96
2023/03/24 09:59:11;;;;;;;23.77;3.90;;;12.30;99.40;;;;;;6278561;22;20080;-96
2023/03/24 10:01:37;;;;;;;20.50;4.60;;;12.30;99.60;;;;;;6278064;22;20024;-93
2023/03/24 10:04:04;;;;;;;26.17;8.10;;;12.20;99.60;;;;;;6278062;22;20023;-92
2023/03/24 10:06:40;;;;;;;25.02;4.45;;;12.20;99.60;;;;;;6278629;22;20073;-93
2023/03/24 10:09:18;;;;;;;24.52;5.72;;;12.20;99.10;;;;;;6276560;22;20049;-94
2023/03/24 10:12:08;;;;;;;30.48;8.10;;;12.10;99.30;;;;;;6277543;22;20447;-93
2023/03/24 10:15:05;;;;;;;36.10;9.75;;;12.10;99.50;;;;;;6251859;22;20094;-95
2023/03/24 10:17:56;;;;;;;26.00;5.65;;;12.10;99.60;;;;;;6280251;22;20015;-96
2023/03/24 10:20:50;;;;;;;19.40;4.10;;;12.20;99.50;;;;;;6280239;22;20023;-95
2023/03/24 10:23:23;;;;;;;;;;;12.20;99.40;;;;;;6278234;22;20317;-92
2023/03/24 10:25:59;;;;;;;20.42;4.00;;;12.10;98.90;;;;;;6279872;22;19990;-96
2023/03/24 10:28:53;;;;;;;21.30;4.63;;;12.20;99.90;;;;;;6280339;22;20309;-96
2023/03/24 10:31:26;;;;;;;19.48;4.00;;;12.30;99.70;;;;;;6275046;22;20012;-92
2023/03/24 10:33:53;;;;;;;18.83;4.00;;;12.30;99.50;;;;;;6277600;22;20015;-92
2023/03/24 10:36:20;;;;;;;18.10;3.50;;;12.40;99.40;;;;;;6276008;22;20008;-94
2023/03/24 10:38:46;;;;;;;21.13;3.95;;;12.50;99.70;;;;;;6276388;22;20038;-93
2023/03/24 10:41:21;;;;;;;18.02;4.07;;;12.50;98.70;;;;;;6278582;22;20459;-94
2023/03/24 10:43:49;;;;;;;18.70;3.95;;;12.50;98.40;;;;;;6277666;22;20016;-93
2023/03/24 10:46:19;;;;;;;18.15;3.50;;;12.60;98.30;;;;;;6277249;22;20015;-93
2023/03/24 10:48:48;;;;;;;20.00;3.78;;;12.60;98.00;;;;;;6283593;22;20026;-96
2023/03/24 10:51:18;;;;;;;18.27;3.42;;;12.60;97.30;;;;;;6285555;22;20090;-96
2023/03/24 10:53:49;;;;;;;17.60;3.22;;;12.60;97.50;;;;;;6281651;22;20018;-95
2023/03/24 10:56:35;;;;;;;17.23;3.10;;;12.60;97.40;;;;;;6281543;22;20015;-94
2023/03/24 10:59:17;;;;;;;20.30;3.30;;;12.60;97.30;;;;;;6286080;22;20088;-96
2023/03/24 11:01:44;;;;;;;18.02;2.90;;;12.70;97.30;;;;;;6284831;22;20027;-95
2023/03/24 11:04:19;;;;;;;18.10;2.85;;;12.70;97.40;;;;;;6286261;22;20026;-96
2023/03/24 11:07:13;;;;;;;13.68;3.28;;;12.80;96.90;;;;;;6286780;22;20435;-96
2023/03/24 11:09:44;;;;;;;18.35;3.80;;;12.80;96.50;;;;;;6283086;22;20101;-96
2023/03/24 11:12:27;;;;;;;20.08;3.20;;;12.90;96.60;;;;;;6285004;22;20022;-93
2023/03/24 11:15:21;;;;;;;15.07;3.40;;;12.90;95.80;;;;;;6284329;22;20011;-95
2023/03/24 11:18:19;;;;;;;17.05;2.90;;;13.00;95.50;;;;;;6266511;22;20047;-94
2023/03/24 11:20:54;;;;;;;18.58;3.10;;;13.00;95.40;;;;;;6264950;22;20012;-93
2023/03/24 11:23:24;;;;;;;15.05;3.05;;;13.00;95.80;;;;;;6278372;22;20459;-94
2023/03/24 11:26:18;;;;;;;14.73;3.00;;;13.00;95.80;;;;;;6279826;22;20317;-91
2023/03/24 11:28:54;;;;;;;;;;;13.00;94.80;;;;;;6279635;22;20023;-96
2023/03/24 11:31:23;;;;;;;17.55;3.00;;;13.10;93.70;;;;;;6279513;22;19915;-95
2023/03/24 11:33:56;;;;;;;14.65;2.80;;;13.10;94.60;;;;;;6277661;22;20440;-96
2023/03/24 11:36:38;;;;;;;;;;;13.20;94.00;;;;;;6278928;22;20057;-93
2023/03/24 11:39:21;;;;;;;20.17;3.40;;;13.20;93.70;;;;;;6278031;22;19923;-95
2023/03/24 11:42:11;;;;;;;16.30;3.00;;;13.30;94.10;;;;;;6275972;22;20343;-93
2023/03/24 11:44:44;;;;;;;16.45;3.05;;;13.30;94.60;;;;;;6276952;22;20019;-93
2023/03/24 11:47:13;;;;;;;18.15;3.13;;;13.40;94.80;;;;;;6277974;22;20019;-92
2023/03/24 11:49:57;;;;;;;15.20;2.83;;;13.50;94.70;;;;;;6278193;22;20444;-92
2023/03/24 11:52:35;;;;;;;18.05;3.00;;;13.60;94.30;;;;;;6279635;22;20012;-91
2023/03/24 11:55:21;;;;;;;16.10;3.05;;;13.70;94.40;;;;;;6276394;22;20098;-90
2023/03/24 11:57:57;;;;;;;16.80;3.83;;;13.70;94.40;;;;;;6278529;22;20011;-89
2023/03/24 12:00:34;;;;;;;16.98;3.10;;;13.80;94.60;;;;;;6277974;22;20028;-92
2023/03/24 12:03:18;;;;;;;13.30;2.50;;;13.80;94.20;;;;;;6276852;22;20011;-94
2023/03/24 12:05:55;;;;;;;13.18;2.60;;;13.90;94.10;;;;;;6279733;22;20019;-93
2023/03/24 12:08:47;;;;;;;12.55;3.20;;;13.90;94.00;;;;;;6276615;22;20031;-91
2023/03/24 12:11:19;;;;;;;21.05;3.15;;;13.90;94.50;;;;;;6277849;22;20019;-92
2023/03/24 12:13:48;;;;;;;14.80;2.93;;;14.00;94.40;;;;;;6278078;22;20012;-93
2023/03/24 12:16:30;;;;;;;18.67;3.13;;;14.00;94.30;;;;;;6277079;22;20023;-91
2023/03/24 12:19:01;;;;;;;16.98;3.17;;;14.00;93.80;;;;;;6277857;22;20016;-92
2023/03/24 12:21:54;;;;;;;15.10;2.83;;;14.10;93.80;;;;;;6279101;22;20058;-91
2023/03/24 12:24:51;;;;;;;14.65;2.75;;;14.10;94.00;;;;;;6277085;22;20026;-91
2023/03/24 12:27:44;;;;;;;14.60;2.60;;;14.20;93.70;;;;;;6277063;22;20047;-92
2023/03/24 12:30:26;;;;;;;;;;;14.20;94.20;;;;;;6277983;22;20007;-90
2023/03/24 12:33:14;;;;;;;14.90;3.13;;;14.20;93.40;;;;;;6277266;22;19994;-90
2023/03/24 12:36:12;;;;;;;27.70;9.30;;;14.30;94.00;;;;;;6277552;22;20022;-92
2023/03/24 12:38:50;;;;;;;22.05;9.40;;;14.30;93.40;;;;;;6275997;22;20039;-92
2023/03/24 12:41:33;;;;;;;15.07;3.65;;;14.30;93.40;;;;;;6278922;22;20019;-91
2023/03/24 12:44:18;;;;;;;16.42;3.17;;;14.20;93.70;;;;;;6279760;22;20069;-90
2023/03/24 12:47:07;;;;;;;15.77;4.90;;;14.10;92.40;;;;;;6277328;22;20051;-91
2023/03/24 12:49:51;;;;;;;18.48;5.10;;;14.10;91.80;;;;;;6279631;22;20023;-90
2023/03/24 12:52:50;;;;;;;14.35;3.28;;;14.00;91.80;;;;;;6277518;22;20102;-92
2023/03/24 12:55:24;;;;;;;11.02;2.95;;;13.90;91.70;;;;;;6276674;22;20046;-93
2023/03/24 12:58:13;;;;;;;13.65;3.08;;;13.90;92.20;;;;;;6276361;22;20102;-89
2023/03/24 13:00:54;;;;;;;15.10;3.03;;;13.90;91.40;;;;;;6276731;22;20062;-90
2023/03/24 13:03:32;;;;;;;14.13;2.75;;;13.90;91.80;;;;;;6277262;22;20015;-91
2023/03/24 13:06:11;;;;;;;17.05;2.85;;;13.90;91.40;;;;;;6279160;22;20015;-93
2023/03/24 13:09:16;;;;;;;14.43;3.08;;;14.00;92.00;;;;;;6292916;22;20063;-96